Time;durP1;ratioP1;P1;durP2;ratioP2;P2;SDS_P1;SDS_P2;PMS_P1;PMS_P2;Temp;Humidity;BMP_temperature;BMP_pressure;BME280_temperature;BME280_humidity;BME280_pressure;Samples;Min_cycle;Max_cycle;Signal;HPM_P1;HPM_P2
2023/05/17 00:00:50;;;;;;;13.37;5.93;;;;;;;-143.84;82.97;44851.03;5069202;28;20445;-55
2023/05/17 00:03:17;;;;;;;12.83;6.40;;;;;;;-143.84;82.81;44868.19;5069641;28;20863;-55
2023/05/17 00:05:44;;;;;;;17.67;6.80;;;;;;;-143.84;82.82;44856.75;5069535;28;20452;-56
2023/05/17 00:08:12;;;;;;;12.57;6.47;;;;;;;-143.84;82.58;44826.28;5069175;28;20450;-55
2023/05/17 00:10:39;;;;;;;19.00;6.60;;;;;;;-143.84;82.58;44868.19;5068919;28;20935;-55
2023/05/17 00:13:08;;;;;;;18.13;8.07;;;;;;;-143.84;82.48;44870.09;5069096;28;20433;-55
2023/05/17 00:15:35;;;;;;;14.33;6.53;;;;;;;-143.84;82.55;44862.47;5068933;28;20496;-56
2023/05/17 00:18:02;;;;;;;11.63;6.63;;;;;;;-143.84;82.50;44881.50;5069426;28;20469;-56
2023/05/17 00:20:29;;;;;;;26.00;6.63;;;;;;;-143.84;82.51;44889.13;5069205;28;20495;-56
2023/05/17 00:22:56;;;;;;;17.97;6.53;;;;;;;-143.84;82.49;44891.03;5069132;28;21000;-55
2023/05/17 00:25:23;;;;;;;18.43;6.73;;;;;;;-143.84;82.49;44881.50;5069214;28;20849;-55
2023/05/17 00:27:50;;;;;;;12.00;6.50;;;;;;;-143.84;82.40;44896.75;5068831;28;20493;-56
2023/05/17 00:30:19;;;;;;;18.60;7.23;;;;;;;-143.84;82.50;44891.03;5069268;28;20437;-55
2023/05/17 00:32:47;;;;;;;14.93;6.80;;;;;;;-143.84;82.62;44881.50;5069111;28;20514;-56
2023/05/17 00:35:14;;;;;;;17.20;7.20;;;;;;;-143.84;82.79;44868.19;5069077;28;21032;-55
2023/05/17 00:37:46;;;;;;;15.13;6.50;;;;;;;-143.84;82.84;44856.75;5069095;28;20453;-55
2023/05/17 00:40:14;;;;;;;11.73;6.23;;;;;;;-143.84;82.81;44805.34;5067781;28;20472;-56
2023/05/17 00:42:41;;;;;;;11.23;6.63;;;;;;;-143.84;83.16;44852.94;5068447;28;20442;-56
2023/05/17 00:45:09;;;;;;;14.10;6.20;;;;;;;-143.84;82.99;44826.28;5067871;28;20437;-56
2023/05/17 00:47:38;;;;;;;15.90;7.00;;;;;;;-143.84;83.05;44837.72;5069082;28;20433;-56
2023/05/17 00:50:06;;;;;;;16.93;7.30;;;;;;;-143.84;83.32;44822.47;5068908;28;20441;-56
2023/05/17 00:52:33;;;;;;;16.80;6.40;;;;;;;-143.84;83.30;44811.06;5069164;28;20491;-56
2023/05/17 00:55:00;;;;;;;16.87;7.10;;;;;;;-143.84;83.13;44830.09;5068672;28;21083;-56
2023/05/17 00:57:28;;;;;;;22.10;6.50;;;;;;;-143.84;83.21;44843.44;5068392;28;20441;-56
2023/05/17 00:59:56;;;;;;;11.43;6.63;;;;;;;-143.84;83.21;44812.97;5068993;28;20437;-56
2023/05/17 01:02:23;;;;;;;11.77;6.03;;;;;;;-143.84;83.21;44797.72;5068978;28;20471;-56
2023/05/17 01:04:51;;;;;;;20.17;7.10;;;;;;;-143.84;83.10;44822.47;5069179;28;20487;-56
2023/05/17 01:07:19;;;;;;;12.63;6.10;;;;;;;-143.84;83.10;44849.13;5068565;28;20452;-56
2023/05/17 01:09:46;;;;;;;17.83;7.90;;;;;;;-143.84;82.96;44856.75;5067735;28;20441;-56
2023/05/17 01:12:24;;;;;;;10.63;5.57;;;;;;;-143.84;82.91;44858.66;5068174;28;20433;-55
2023/05/17 01:14:58;;;;;;;16.73;6.57;;;;;;;-143.84;82.71;44862.47;5068558;28;20445;-56
2023/05/17 01:17:35;;;;;;;12.97;6.20;;;;;;;-143.84;82.76;44866.28;5068952;28;21395;-55
2023/05/17 01:20:12;;;;;;;9.77;5.80;;;;;;;-143.84;82.83;44860.56;5068739;28;20433;-56
2023/05/17 01:22:47;;;;;;;20.90;5.73;;;;;;;-143.84;82.80;44868.19;5068583;28;20441;-55
2023/05/17 01:25:33;;;;;;;15.47;5.47;;;;;;;-143.84;82.55;44887.22;5068592;28;20449;-56
2023/05/17 01:28:04;;;;;;;15.57;6.23;;;;;;;-143.84;82.53;44896.75;5068449;28;20482;-56
2023/05/17 01:30:34;;;;;;;15.57;6.03;;;;;;;-143.84;82.52;44904.34;5068463;28;20441;-55
2023/05/17 01:33:04;;;;;;;18.27;5.50;;;;;;;-143.84;82.71;44873.88;5068026;28;20441;-56
2023/05/17 01:35:31;;;;;;;22.80;6.20;;;;;;;-143.84;82.81;44891.03;5067626;28;20853;-56
2023/05/17 01:37:58;;;;;;;21.87;5.10;;;;;;;-143.84;82.75;44891.03;5067689;28;20444;-56
2023/05/17 01:40:26;;;;;;;12.97;5.47;;;;;;;-143.84;82.58;44875.78;5067599;28;20445;-56
2023/05/17 01:42:57;;;;;;;9.63;5.03;;;;;;;-143.84;82.75;44927.19;5067558;28;20931;-56
2023/05/17 01:45:31;;;;;;;15.33;5.20;;;;;;;-143.84;82.18;44894.84;5067930;28;20481;-55
2023/05/17 01:48:09;;;;;;;20.57;5.47;;;;;;;-143.84;81.73;44959.56;5068393;28;20486;-56
2023/05/17 01:50:37;;;;;;;12.77;6.03;;;;;;;-143.84;81.53;44969.09;5068330;28;20448;-56
2023/05/17 01:53:10;;;;;;;15.53;5.30;;;;;;;-143.84;81.58;44984.31;5068176;28;21015;-56
2023/05/17 01:55:44;;;;;;;19.13;6.73;;;;;;;-143.84;81.01;44974.81;5068607;28;20481;-56
2023/05/17 01:58:13;;;;;;;13.03;5.27;;;;;;;-143.84;80.40;45024.31;5072057;28;20919;-56
2023/05/17 02:00:46;;;;;;;11.10;4.90;;;;;;;-143.84;79.90;45033.84;5072027;28;20543;-56
2023/05/17 02:03:17;;;;;;;16.37;5.30;;;;;;;-143.84;79.62;45043.34;5071889;28;20441;-55
2023/05/17 02:05:44;;;;;;;14.87;5.53;;;;;;;-143.84;79.76;45030.03;5071109;28;20452;-56
2023/05/17 02:08:11;;;;;;;15.70;5.33;;;;;;;-143.84;80.24;45014.78;5071442;28;21224;-56
2023/05/17 02:10:38;;;;;;;23.90;4.87;;;;;;;-143.84;80.84;44995.75;5072019;28;20433;-56
2023/05/17 02:13:05;;;;;;;19.20;5.00;;;;;;;-143.84;81.57;44972.91;5071909;28;20437;-56
2023/05/17 02:15:33;;;;;;;10.57;4.67;;;;;;;-143.84;81.61;44988.13;5071802;28;21131;-55
2023/05/17 02:18:01;;;;;;;15.37;4.57;;;;;;;-143.84;81.53;44976.72;5071731;28;20437;-55
2023/05/17 02:20:28;;;;;;;10.50;4.73;;;;;;;-143.84;81.84;44959.56;5071501;28;20514;-55
2023/05/17 02:22:55;;;;;;;11.13;4.43;;;;;;;-143.84;82.20;44938.63;5071462;28;20499;-55
2023/05/17 02:25:22;;;;;;;9.10;4.60;;;;;;;-143.84;81.98;44940.53;5071429;28;20453;-55
2023/05/17 02:27:50;;;;;;;14.83;4.90;;;;;;;-143.84;81.73;44972.91;5071189;28;20493;-55
2023/05/17 02:30:17;;;;;;;12.63;4.40;;;;;;;-143.84;81.70;44972.91;5071420;28;20438;-55
2023/05/17 02:32:44;;;;;;;11.20;4.63;;;;;;;-143.84;81.67;44955.75;5070925;28;20967;-55
2023/05/17 02:35:12;;;;;;;11.20;4.10;;;;;;;-143.84;81.09;44965.28;5070705;28;20437;-55
2023/05/17 02:37:40;;;;;;;9.43;4.00;;;;;;;-143.84;80.74;44974.81;5070966;28;20499;-55
2023/05/17 02:40:08;;;;;;;18.30;4.67;;;;;;;-143.84;80.13;45047.16;5071471;28;20811;-55
2023/05/17 02:42:36;;;;;;;11.93;4.37;;;;;;;-143.84;79.96;45007.19;5071387;28;20472;-55
2023/05/17 02:45:04;;;;;;;8.17;4.20;;;;;;;-143.84;79.91;45028.13;5071464;28;20441;-55
2023/05/17 02:47:31;;;;;;;19.10;5.77;;;;;;;-143.84;79.75;45035.75;5071120;28;20515;-55
2023/05/17 02:49:58;;;;;;;10.30;4.20;;;;;;;-143.84;79.72;45037.66;5070930;28;21020;-55
2023/05/17 02:52:26;;;;;;;11.93;4.17;;;;;;;-143.84;79.76;45018.59;5071036;28;20532;-55
2023/05/17 02:54:53;;;;;;;20.00;4.20;;;;;;;-143.84;79.85;45028.13;5071022;28;20449;-55
2023/05/17 02:57:20;;;;;;;15.80;5.07;;;;;;;-143.84;79.79;45047.16;5071151;28;20484;-55
2023/05/17 02:59:48;;;;;;;10.10;4.33;;;;;;;-143.84;79.82;45037.66;5071060;28;20511;-55
2023/05/17 03:02:15;;;;;;;9.23;4.33;;;;;;;-143.84;79.98;45012.88;5070178;28;20517;-55
2023/05/17 03:04:42;;;;;;;11.03;4.27;;;;;;;-143.84;79.94;45031.94;5070021;28;20503;-55
2023/05/17 03:07:09;;;;;;;12.80;4.40;;;;;;;-143.84;79.95;45009.09;5070312;28;20437;-55
2023/05/17 03:09:38;;;;;;;12.43;4.50;;;;;;;-143.84;79.91;44993.84;5070357;28;20460;-55
2023/05/17 03:12:05;;;;;;;18.13;4.83;;;;;;;-143.84;79.94;44997.66;5070915;28;20491;-55
2023/05/17 03:14:33;;;;;;;14.50;4.30;;;;;;;-143.84;79.99;45028.13;5070497;28;20442;-55
2023/05/17 03:17:00;;;;;;;12.33;4.07;;;;;;;-143.84;79.59;45035.75;5070556;28;20481;-55
2023/05/17 03:19:27;;;;;;;8.07;3.97;;;;;;;-143.84;79.68;45022.41;5070246;28;21246;-55
2023/05/17 03:21:54;;;;;;;11.77;3.80;;;;;;;-143.84;79.02;45049.06;5070620;28;20465;-65
2023/05/17 03:24:21;;;;;;;13.00;3.73;;;;;;;-143.84;78.96;45031.94;5070185;28;20444;-59
2023/05/17 03:26:49;;;;;;;16.97;4.30;;;;;;;-143.84;78.89;45031.94;5070190;28;20995;-59
2023/05/17 03:29:16;;;;;;;9.20;4.70;;;;;;;-143.84;78.79;45049.06;5069497;28;20519;-59
2023/05/17 03:31:44;;;;;;;18.60;4.37;;;;;;;-143.84;77.71;45066.22;5069722;28;20445;-59
2023/05/17 03:34:11;;;;;;;11.47;3.67;;;;;;;-143.84;77.61;45092.88;5070133;28;21247;-59
2023/05/17 03:36:39;;;;;;;13.13;4.00;;;;;;;-143.84;77.66;45075.72;5069971;28;20545;-59
2023/05/17 03:39:06;;;;;;;11.30;3.93;;;;;;;-143.84;77.12;45064.31;5070010;28;20444;-59
2023/05/17 03:41:33;;;;;;;15.97;4.20;;;;;;;-143.84;77.45;45073.81;5070083;28;20950;-59
2023/05/17 03:44:02;;;;;;;24.37;4.00;;;;;;;-143.84;77.14;45064.31;5070019;28;20441;-59
2023/05/17 03:46:29;;;;;;;6.10;3.97;;;;;;;-143.84;77.32;45075.72;5069950;28;20437;-59
2023/05/17 03:48:56;;;;;;;10.57;4.20;;;;;;;-143.84;77.25;45058.59;5070074;28;20793;-59
2023/05/17 03:51:23;;;;;;;18.80;4.83;;;;;;;-143.84;77.30;45052.88;5070128;28;20514;-59
2023/05/17 03:53:57;;;;;;;7.33;4.03;;;;;;;-143.84;77.04;45068.13;5069921;28;20511;-59
2023/05/17 03:56:24;;;;;;;13.97;4.67;;;;;;;-143.84;77.20;45054.78;5068743;28;20557;-59
2023/05/17 03:58:51;;;;;;;9.97;3.73;;;;;;;-143.84;77.28;45062.41;5067369;28;20471;-59
2023/05/17 04:01:20;;;;;;;16.93;4.60;;;;;;;-143.84;77.22;45070.00;5067534;28;20449;-59
2023/05/17 04:03:47;;;;;;;12.87;4.43;;;;;;;-143.84;76.88;45058.59;5068164;28;20794;-59
2023/05/17 04:06:14;;;;;;;16.10;5.07;;;;;;;-143.84;76.27;45077.63;5068102;28;20445;-59
2023/05/17 04:08:41;;;;;;;9.23;4.10;;;;;;;-143.84;75.74;45081.44;5068197;28;20449;-59
2023/05/17 04:11:12;;;;;;;15.50;4.33;;;;;;;-143.84;75.76;45100.47;5068217;28;20448;-60
2023/05/17 04:13:39;;;;;;;20.83;3.87;;;;;;;-143.84;75.58;45070.00;5069435;28;20445;-59
2023/05/17 04:16:07;;;;;;;12.20;4.53;;;;;;;-143.84;75.31;45098.56;5069132;28;20829;-59
2023/05/17 04:18:37;;;;;;;13.13;4.23;;;;;;;-143.84;75.07;45102.38;5068722;28;20441;-59
2023/05/17 04:21:05;;;;;;;16.13;3.70;;;;;;;-143.84;74.81;45102.38;5068936;28;20452;-59
2023/05/17 04:23:32;;;;;;;16.30;4.27;;;;;;;-143.84;74.98;45094.78;5068957;28;20494;-59
2023/05/17 04:26:00;;;;;;;10.60;3.53;;;;;;;-143.84;74.68;45092.88;5068187;28;20469;-59
2023/05/17 04:28:27;;;;;;;9.60;3.60;;;;;;;-143.84;74.17;45094.78;5068025;28;20480;-59
2023/05/17 04:30:55;;;;;;;12.53;4.43;;;;;;;-143.84;73.94;45098.56;5068718;28;20532;-59
2023/05/17 04:33:22;;;;;;;10.40;3.00;;;;;;;-143.84;73.68;45085.25;5068959;28;20468;-59
2023/05/17 04:35:55;;;;;;;7.30;3.40;;;;;;;-143.84;73.74;45087.16;5069290;28;20434;-59
2023/05/17 04:38:23;;;;;;;5.13;3.57;;;;;;;-143.84;73.66;45073.81;5069041;28;20543;-59
2023/05/17 04:40:50;;;;;;;12.83;3.63;;;;;;;-143.84;73.62;45102.38;5069076;28;20428;-59
2023/05/17 04:43:17;;;;;;;20.70;3.53;;;;;;;-143.84;73.73;45090.97;5068675;28;20437;-59
2023/05/17 04:45:44;;;;;;;11.60;3.80;;;;;;;-143.84;74.25;45071.91;5068961;28;20499;-59
2023/05/17 04:48:12;;;;;;;14.70;4.03;;;;;;;-143.84;74.36;45070.00;5069006;28;20469;-59
2023/05/17 04:50:39;;;;;;;12.03;4.30;;;;;;;-143.84;73.94;45070.00;5068926;28;20433;-60
2023/05/17 04:53:08;;;;;;;13.13;4.07;;;;;;;-143.84;73.67;45062.41;5068851;28;21030;-59
2023/05/17 04:55:35;;;;;;;12.00;4.73;;;;;;;-143.84;73.10;45090.97;5068167;28;20499;-60
2023/05/17 04:58:02;;;;;;;14.57;3.67;;;;;;;-143.84;72.36;45077.63;5068774;28;20538;-60
2023/05/17 05:00:29;;;;;;;13.10;4.27;;;;;;;-143.84;71.05;45090.97;5068427;28;20437;-60
2023/05/17 05:02:57;;;;;;;7.50;3.10;;;;;;;-143.84;71.01;45081.44;5068941;28;21009;-60
2023/05/17 05:05:24;;;;;;;8.50;3.70;;;;;;;-143.84;70.46;45102.38;5068731;28;20438;-60
2023/05/17 05:07:51;;;;;;;7.70;3.93;;;;;;;-143.84;70.56;45110.00;5068833;28;20989;-60
2023/05/17 05:10:20;;;;;;;11.27;3.50;;;;;;;-143.84;70.88;45094.78;5068721;28;20506;-60
2023/05/17 05:12:47;;;;;;;9.83;3.47;;;;;;;-143.84;71.03;45102.38;5068445;28;20457;-60
2023/05/17 05:15:14;;;;;;;11.10;4.23;;;;;;;-143.84;70.82;45087.16;5068635;28;20494;-59
2023/05/17 05:17:41;;;;;;;10.00;3.77;;;;;;;-143.84;70.88;45087.16;5068658;28;20557;-59
2023/05/17 05:20:10;;;;;;;14.93;3.47;;;;;;;-143.84;70.20;45092.88;5068642;28;21009;-60
2023/05/17 05:22:37;;;;;;;9.80;3.20;;;;;;;-143.84;70.43;45087.16;5068408;28;20994;-60
2023/05/17 05:25:04;;;;;;;8.47;3.60;;;;;;;-143.84;70.47;45108.09;5068325;28;20441;-60
2023/05/17 05:27:34;;;;;;;11.60;4.07;;;;;;;-143.84;70.23;45092.88;5067766;28;20473;-60
2023/05/17 05:30:02;;;;;;;6.57;3.60;;;;;;;-143.84;70.54;45119.53;5068539;28;20804;-61
2023/05/17 05:32:29;;;;;;;8.63;4.03;;;;;;;-143.84;70.76;45090.97;5071989;28;20955;-60
2023/05/17 05:34:56;;;;;;;12.30;3.97;;;;;;;-143.84;70.46;45113.81;5072793;28;20483;-60
2023/05/17 05:37:23;;;;;;;11.70;4.30;;;;;;;-143.84;70.86;45081.44;5072269;28;20485;-60
2023/05/17 05:39:50;;;;;;;6.90;3.77;;;;;;;-143.84;70.80;45108.09;5072390;28;20450;-61
2023/05/17 05:42:18;;;;;;;11.53;4.10;;;;;;;-143.84;70.64;45098.56;5072428;28;21015;-60
2023/05/17 05:44:47;;;;;;;12.57;4.00;;;;;;;-143.84;70.91;45085.25;5072240;28;20449;-60
2023/05/17 05:47:14;;;;;;;13.20;4.37;;;;;;;-143.84;70.57;45090.97;5072241;28;20502;-60
2023/05/17 05:49:41;;;;;;;15.60;3.87;;;;;;;-143.84;70.48;45085.25;5072285;28;20437;-61
2023/05/17 05:52:08;;;;;;;32.53;14.60;;;;;;;-143.84;69.04;45098.56;5071692;28;20441;-62
2023/05/17 05:54:35;;;;;;;7.07;3.93;;;;;;;-143.84;67.29;45111.91;5071554;28;20450;-60
2023/05/17 05:57:02;;;;;;;4.43;3.90;;;;;;;-143.84;66.86;45123.34;5071495;28;21018;-60
2023/05/17 05:59:30;;;;;;;17.13;3.97;;;;;;;-143.84;65.68;45098.56;5070988;28;20445;-60
2023/05/17 06:01:58;;;;;;;8.50;3.20;;;;;;;-143.84;65.82;45085.25;5070783;28;20437;-60
2023/05/17 06:04:26;;;;;;;16.13;3.50;;;;;;;-143.84;65.38;45096.66;5072058;28;20453;-60
2023/05/17 06:06:54;;;;;;;12.77;4.00;;;;;;;-143.84;65.44;45106.19;5071355;28;20457;-60
2023/05/17 06:09:22;;;;;;;10.83;2.90;;;;;;;-143.84;64.54;45108.09;5071137;28;20511;-60
2023/05/17 06:11:52;;;;;;;10.60;3.30;;;;;;;-143.84;63.61;45110.00;5071264;28;20499;-60
2023/05/17 06:14:19;;;;;;;13.83;3.70;;;;;;;-143.84;63.91;45098.56;5071360;28;20445;-60
2023/05/17 06:16:47;;;;;;;6.40;2.87;;;;;;;-143.84;62.16;45089.06;5071652;28;20473;-60
2023/05/17 06:19:15;;;;;;;9.30;3.20;;;;;;;-143.84;61.83;45096.66;5071757;28;20443;-60
2023/05/17 06:21:43;;;;;;;11.10;2.90;;;;;;;-143.84;60.73;45077.63;5071428;28;20991;-60
2023/05/17 06:24:10;;;;;;;10.73;3.33;;;;;;;-143.84;59.55;45104.28;5071015;28;20448;-60
2023/05/17 06:26:37;;;;;;;7.90;3.13;;;;;;;-143.84;59.33;45108.09;5070393;28;20490;-59
2023/05/17 06:29:04;;;;;;;7.43;2.77;;;;;;;-143.84;57.79;45140.47;5071457;28;20902;-60
2023/05/17 06:31:32;;;;;;;7.53;2.90;;;;;;;-143.84;56.40;45092.88;5071614;28;20445;-60
2023/05/17 06:33:59;;;;;;;10.57;3.13;;;;;;;-143.84;55.88;45111.91;5071389;28;20445;-60
2023/05/17 06:36:27;;;;;;;8.47;3.17;;;;;;;-143.84;55.86;45083.34;5071558;28;20443;-59
2023/05/17 06:38:54;;;;;;;14.87;3.43;;;;;;;-143.84;56.88;45102.38;5071160;28;20504;-60
2023/05/17 06:41:21;;;;;;;6.90;2.90;;;;;;;-143.84;55.57;45090.97;5070590;28;21014;-60
2023/05/17 06:43:48;;;;;;;9.50;3.53;;;;;;;-143.84;56.28;45110.00;5069827;28;20442;-60
2023/05/17 06:46:16;;;;;;;14.97;2.83;;;;;;;-143.84;55.74;45100.47;5071383;28;20932;-60
2023/05/17 06:48:43;;;;;;;16.93;2.80;;;;;;;-143.84;55.02;45083.34;5071184;28;21029;-60
2023/05/17 06:51:10;;;;;;;13.13;3.13;;;;;;;-143.84;53.45;45125.22;5071138;28;20450;-59
2023/05/17 06:53:38;;;;;;;5.30;2.73;;;;;;;-143.84;50.60;45077.63;5071220;28;20451;-60
2023/05/17 06:56:05;;;;;;;7.57;3.60;;;;;;;-143.84;51.54;45085.25;5071033;28;20448;-60
2023/05/17 06:58:34;;;;;;;8.90;3.20;;;;;;;-143.84;51.98;45108.09;5070815;28;20528;-60
2023/05/17 07:01:01;;;;;;;5.70;2.80;;;;;;;-143.84;51.93;45077.63;5071010;28;20447;-60
2023/05/17 07:03:28;;;;;;;31.43;3.40;;;;;;;-143.84;50.66;45094.78;5070926;28;20442;-60
2023/05/17 07:05:56;;;;;;;15.63;3.60;;;;;;;-143.84;51.98;45077.63;5070502;28;20438;-60
2023/05/17 07:08:23;;;;;;;6.33;2.67;;;;;;;-143.84;51.57;45102.38;5070302;28;20443;-60
2023/05/17 07:10:53;;;;;;;8.97;3.03;;;;;;;-143.84;51.04;45104.28;5070700;28;20508;-60
2023/05/17 07:13:20;;;;;;;4.30;1.97;;;;;;;-143.84;52.06;45085.25;5070924;28;20507;-60
2023/05/17 07:15:47;;;;;;;5.77;2.60;;;;;;;-143.84;50.37;45079.53;5070346;28;20443;-60
2023/05/17 07:18:15;;;;;;;3.63;2.03;;;;;;;-143.84;49.63;45075.72;5069708;28;20477;-59
2023/05/17 07:20:42;;;;;;;19.73;3.23;;;;;;;-143.84;49.51;45077.63;5069989;28;21244;-60
2023/05/17 07:23:09;;;;;;;5.20;2.50;;;;;;;-143.84;49.85;45083.34;5070433;28;20496;-60
2023/05/17 07:25:39;;;;;;;8.70;2.40;;;;;;;-143.84;48.95;45087.16;5070280;28;20447;-60
2023/05/17 07:28:07;;;;;;;13.50;2.83;;;;;;;-143.84;49.93;45071.91;5070353;28;20484;-60
2023/05/17 07:30:34;;;;;;;6.03;3.07;;;;;;;-143.84;48.00;45075.72;5070509;28;20899;-60
2023/05/17 07:33:02;;;;;;;15.50;2.63;;;;;;;-143.84;47.68;45081.44;5070224;28;20448;-60
2023/05/17 07:35:29;;;;;;;16.03;2.60;;;;;;;-143.84;47.89;45079.53;5070135;28;20440;-60
2023/05/17 07:37:56;;;;;;;23.10;15.00;;;;;;;-143.84;47.13;45071.91;5070092;28;20479;-60
2023/05/17 07:40:23;;;;;;;96.67;62.43;;;;;;;-143.84;47.97;45060.50;5069978;28;20825;-63
2023/05/17 07:42:50;;;;;;;19.10;10.50;;;;;;;-143.84;45.82;45075.72;5070435;28;20428;-61
2023/05/17 07:45:20;;;;;;;7.60;3.10;;;;;;;-143.84;47.14;45064.31;5070154;28;20457;-59
2023/05/17 07:47:47;;;;;;;7.87;2.50;;;;;;;-143.84;47.08;45066.22;5069647;28;20449;-59
2023/05/17 07:50:14;;;;;;;6.90;3.40;;;;;;;-143.84;46.99;45045.25;5069254;28;20499;-59
2023/05/17 07:52:41;;;;;;;7.60;2.97;;;;;;;-143.84;46.60;45056.69;5069386;28;20845;-59
2023/05/17 07:55:09;;;;;;;5.27;2.43;;;;;;;-143.84;45.64;45052.88;5069148;28;20433;-59
2023/05/17 07:57:36;;;;;;;8.83;2.70;;;;;;;-143.84;46.60;45071.91;5069572;28;20483;-59
2023/05/17 08:00:05;;;;;;;5.17;2.80;;;;;;;-143.84;45.43;45033.84;5069934;28;20958;-60
2023/05/17 08:02:33;;;;;;;9.63;2.57;;;;;;;-143.84;45.20;45083.34;5069642;28;20499;-59
2023/05/17 08:05:00;;;;;;;7.17;2.27;;;;;;;-143.84;45.11;45041.44;5069694;28;20446;-59
2023/05/17 08:07:27;;;;;;;6.43;2.40;;;;;;;-143.84;45.64;45052.88;5069617;28;20841;-59
2023/05/17 08:09:54;;;;;;;10.30;2.90;;;;;;;-143.84;45.84;45070.00;5069528;28;20445;-59
2023/05/17 08:12:21;;;;;;;9.73;2.80;;;;;;;-143.84;45.70;45049.06;5069457;28;20438;-59
2023/05/17 08:14:49;;;;;;;5.93;2.23;;;;;;;-143.84;44.87;45052.88;5069431;28;20957;-59
2023/05/17 08:17:16;;;;;;;5.27;2.47;;;;;;;-143.84;45.11;45050.97;5069327;28;20484;-59
2023/05/17 08:19:44;;;;;;;4.53;2.70;;;;;;;-143.84;46.21;45030.03;5069119;28;20502;-59
2023/05/17 08:22:11;;;;;;;9.87;3.80;;;;;;;-143.84;47.06;45079.53;5068641;28;20445;-59
2023/05/17 08:24:38;;;;;;;9.80;4.40;;;;;;;-143.84;47.81;45079.53;5068415;28;20969;-59
2023/05/17 08:27:06;;;;;;;4.70;3.00;;;;;;;-143.84;48.37;45043.34;5068993;28;20485;-59
2023/05/17 08:29:33;;;;;;;7.03;3.30;;;;;;;-143.84;48.33;45079.53;5069189;28;20449;-59
2023/05/17 08:32:00;;;;;;;13.60;2.77;;;;;;;-143.84;47.97;45090.97;5069197;28;20449;-59
2023/05/17 08:34:27;;;;;;;9.50;4.13;;;;;;;-143.84;49.25;45028.13;5069232;28;20475;-59
2023/05/17 08:36:57;;;;;;;11.63;4.20;;;;;;;-143.84;48.76;45062.41;5069153;28;20959;-59
2023/05/17 08:39:24;;;;;;;4.30;3.00;;;;;;;-143.84;48.65;45054.78;5068968;28;21000;-59
2023/05/17 08:41:52;;;;;;;11.90;3.80;;;;;;;-143.84;47.83;45071.91;5069257;28;20510;-59
2023/05/17 08:44:20;;;;;;;6.50;3.30;;;;;;;-143.84;49.21;45056.69;5069094;28;20463;-59
2023/05/17 08:46:52;;;;;;;8.00;3.50;;;;;;;-143.84;50.33;45077.63;5069251;28;20509;-64
2023/05/17 08:49:22;;;;;;;15.00;4.17;;;;;;;-143.84;51.26;45092.88;5069360;28;20510;-65
2023/05/17 08:51:51;;;;;;;13.63;3.60;;;;;;;-143.84;51.37;45066.22;5069049;28;20446;-65
2023/05/17 08:54:19;;;;;;;6.70;3.43;;;;;;;-143.84;51.57;45056.69;5069173;28;20452;-65
2023/05/17 08:56:50;;;;;;;15.73;3.93;;;;;;;-143.84;51.44;45037.66;5069050;28;20445;-65
2023/05/17 08:59:19;;;;;;;9.37;3.30;;;;;;;-143.84;51.51;45056.69;5069126;28;20838;-64
2023/05/17 09:01:49;;;;;;;19.93;4.07;;;;;;;-143.84;52.47;45056.69;5069231;28;20465;-64
2023/05/17 09:04:17;;;;;;;13.53;4.70;;;;;;;-143.84;53.35;45068.13;5068626;28;20437;-65
2023/05/17 09:06:44;;;;;;;9.53;3.53;;;;;;;-143.84;53.16;45056.69;5068201;28;20464;-65
2023/05/17 09:09:12;;;;;;;8.93;3.63;;;;;;;-143.84;53.89;45087.16;5068772;28;20441;-66
2023/05/17 09:11:40;;;;;;;9.00;4.10;;;;;;;-143.84;55.25;45064.31;5068750;28;20444;-61
2023/05/17 09:14:08;;;;;;;12.30;4.10;;;;;;;-143.84;55.71;45066.22;5069197;28;21185;-62
2023/05/17 09:16:36;;;;;;;18.00;11.80;;;;;;;-143.84;56.99;45068.13;5069170;28;20448;-61
2023/05/17 09:19:04;;;;;;;30.50;6.97;;;;;;;-143.84;57.99;45075.72;5068843;28;20492;-63
2023/05/17 09:21:32;;;;;;;7.87;4.20;;;;;;;-143.84;58.20;45096.66;5068664;28;20517;-62
2023/05/17 09:24:00;;;;;;;13.07;4.07;;;;;;;-143.84;57.80;45070.00;5068662;28;20464;-62
2023/05/17 09:26:39;;;;;;;8.70;4.00;;;;;;;-143.84;58.52;45060.50;5068473;28;20497;-62
2023/05/17 09:29:10;;;;;;;6.37;4.10;;;;;;;-143.84;58.67;45100.47;5068701;28;20440;-62
2023/05/17 09:31:37;;;;;;;9.33;3.93;;;;;;;-143.84;59.42;45085.25;5068855;28;20459;-62
2023/05/17 09:34:06;;;;;;;20.63;3.60;;;;;;;-143.84;59.53;45098.56;5068816;28;21217;-63
2023/05/17 09:36:33;;;;;;;5.57;3.53;;;;;;;-143.84;60.09;45079.53;5068507;28;20451;-62
2023/05/17 09:39:04;;;;;;;12.73;4.30;;;;;;;-143.84;60.46;45102.38;5068497;28;20840;-62
2023/05/17 09:41:32;;;;;;;6.90;4.13;;;;;;;-143.84;59.10;45094.78;5068538;28;20448;-63
2023/05/17 09:44:01;;;;;;;13.93;5.03;;;;;;;-143.84;59.53;45089.06;5068606;28;20958;-63
2023/05/17 09:46:34;;;;;;;11.53;4.17;;;;;;;-143.84;60.03;45049.06;5068441;28;20456;-62
2023/05/17 09:49:02;;;;;;;12.77;4.07;;;;;;;-143.84;58.96;45081.44;5068182;28;20540;-62
2023/05/17 09:51:33;;;;;;;13.30;4.47;;;;;;;-143.84;59.32;45096.66;5068132;28;20482;-62
2023/05/17 09:54:01;;;;;;;16.47;4.10;;;;;;;-143.84;59.47;45075.72;5068277;28;20452;-63
2023/05/17 09:56:31;;;;;;;13.23;4.30;;;;;;;-143.84;59.40;45070.00;5068766;28;20450;-62
2023/05/17 09:59:01;;;;;;;6.00;3.57;;;;;;;-143.84;58.59;45089.06;5068419;28;20991;-62
2023/05/17 10:01:30;;;;;;;8.00;3.20;;;;;;;-143.84;59.75;45064.31;5068240;28;20442;-63
2023/05/17 10:04:01;;;;;;;5.23;3.97;;;;;;;-143.84;59.25;45089.06;5068185;28;20446;-62
2023/05/17 10:06:30;;;;;;;6.20;3.83;;;;;;;-143.84;60.23;45052.88;5068396;28;20531;-62
2023/05/17 10:08:58;;;;;;;10.83;4.10;;;;;;;-143.84;58.89;45068.13;5068195;28;20530;-63
2023/05/17 10:11:32;;;;;;;7.13;3.20;;;;;;;-143.84;57.35;45096.66;5068314;28;20861;-63
2023/05/17 10:14:05;;;;;;;21.00;4.33;;;;;;;-143.84;57.25;45071.91;5068410;28;20501;-62
2023/05/17 10:16:34;;;;;;;10.03;3.63;;;;;;;-143.84;56.62;45075.72;5068433;28;20469;-62
2023/05/17 10:19:02;;;;;;;7.27;3.70;;;;;;;-143.84;56.24;45050.97;5071357;28;20476;-62
2023/05/17 10:21:30;;;;;;;6.93;3.67;;;;;;;-143.84;56.09;45056.69;5071402;28;20435;-62
2023/05/17 10:24:00;;;;;;;7.63;3.20;;;;;;;-143.84;54.50;45075.72;5071140;28;20440;-62
2023/05/17 10:26:27;;;;;;;7.27;4.40;;;;;;;-143.84;53.69;45090.97;5071218;28;20543;-62
2023/05/17 10:28:59;;;;;;;5.30;3.10;;;;;;;-143.84;52.64;45085.25;5070719;28;20999;-62
2023/05/17 10:31:29;;;;;;;10.67;4.07;;;;;;;-143.84;52.25;45089.06;5070963;28;20439;-62
2023/05/17 10:33:59;;;;;;;5.23;3.47;;;;;;;-143.84;52.72;45079.53;5071250;28;20454;-62
2023/05/17 10:36:26;;;;;;;6.50;3.23;;;;;;;-143.84;52.95;45085.25;5071267;28;20476;-62
2023/05/17 10:38:54;;;;;;;7.93;2.90;;;;;;;-143.84;50.45;45073.81;5071255;28;20544;-62
2023/05/17 10:41:24;;;;;;;15.40;3.43;;;;;;;-143.84;49.39;45062.41;5071334;28;20455;-62
2023/05/17 10:43:53;;;;;;;10.37;3.40;;;;;;;-143.84;49.34;45089.06;5071200;28;20444;-62
2023/05/17 10:46:20;;;;;;;3.63;2.50;;;;;;;-143.84;48.77;45062.41;5071306;28;20525;-62
2023/05/17 10:48:48;;;;;;;7.33;3.13;;;;;;;-143.84;47.86;45070.00;5071356;28;20443;-62
2023/05/17 10:51:23;;;;;;;7.23;3.00;;;;;;;-143.84;48.34;45083.34;5071165;28;20516;-62
2023/05/17 10:54:11;;;;;;;6.33;3.17;;;;;;;-143.84;47.83;45089.06;5071277;28;20859;-62
2023/05/17 10:56:41;;;;;;;8.77;2.87;;;;;;;-143.84;48.30;45052.88;5071020;28;20771;-62
2023/05/17 10:59:20;;;;;;;5.30;2.57;;;;;;;-143.84;48.08;45073.81;5071169;28;20499;-62
2023/05/17 11:01:58;;;;;;;15.13;3.00;;;;;;;-143.84;47.71;45068.13;5070915;28;20448;-62
2023/05/17 11:04:28;;;;;;;9.90;3.40;;;;;;;-143.84;48.18;45068.13;5070974;28;20438;-62
2023/05/17 11:07:23;;;;;;;11.70;3.10;;;;;;;-143.84;48.60;45087.16;5070713;28;20778;-62
2023/05/17 11:09:53;;;;;;;7.70;2.80;;;;;;;-143.84;48.92;45081.44;5070638;28;20510;-62
2023/05/17 11:12:31;;;;;;;5.00;3.20;;;;;;;-143.84;48.60;45071.91;5070638;28;20511;-62
2023/05/17 11:14:58;;;;;;;3.53;2.90;;;;;;;-143.84;48.64;45056.69;5070929;28;20439;-62
2023/05/17 11:17:26;;;;;;;11.60;3.53;;;;;;;-143.84;49.30;45077.63;5070747;28;20440;-62